Time,TemperatureF,DewpointF,PressureIn,WindDirection,WindDirectionDegrees,WindSpeedMPH,WindSpeedGustMPH,Humidity,HourlyPrecipIn,Conditions,Clouds,dailyrainin,SolarRadiationWatts/m^2,SoftwareType,DateUTC
2013-01-03 00:02:00,28.0,22.0,-100.00,NNW,331,6.0,8.0,77,0.00,,,0.00,0.000000,,2013-01-03 08:02:00,
2013-01-03 00:11:00,28.0,22.0,-100.00,NNW,331,6.0,8.0,77,0.00,,,0.00,0.000000,,2013-01-03 08:11:00,
2013-01-03 00:22:00,28.0,22.0,-100.00,NNW,331,6.0,8.0,77,0.00,,,0.00,0.000000,,2013-01-03 08:22:00,
2013-01-03 00:53:00,28.0,21.0,-100.00,ESE,117,1.0,8.0,75,0.00,,,0.00,0.000000,,2013-01-03 08:53:00,
2013-01-03 01:02:00,28.0,21.0,-100.00,ESE,117,1.0,8.0,75,0.00,,,0.00,0.000000,,2013-01-03 09:02:00,
2013-01-03 01:12:00,28.0,21.0,-100.00,ESE,117,1.0,8.0,75,0.00,,,0.00,0.000000,,2013-01-03 09:12:00,
2013-01-03 01:22:00,28.0,21.0,-100.00,ESE,117,1.0,8.0,75,0.00,,,0.00,0.000000,,2013-01-03 09:22:00,
2013-01-03 01:53:00,28.0,24.0,-100.00,WNW,284,2.0,5.0,85,0.00,,,0.00,0.000000,,2013-01-03 09:53:00,
2013-01-03 02:02:00,28.0,24.0,-100.00,WNW,284,2.0,5.0,85,0.00,,,0.00,0.000000,,2013-01-03 10:02:00,
2013-01-03 02:12:00,28.0,24.0,-100.00,WNW,284,2.0,5.0,85,0.00,,,0.00,0.000000,,2013-01-03 10:12:00,
2013-01-03 02:22:00,28.0,24.0,-100.00,WNW,284,2.0,5.0,85,0.00,,,0.00,0.000000,,2013-01-03 10:22:00,
2013-01-03 02:53:00,28.0,24.0,-100.00,NNW,340,3.0,6.0,86,0.00,,,0.00,0.000000,,2013-01-03 10:53:00,
2013-01-03 03:02:00,28.0,24.0,-100.00,NNW,340,3.0,6.0,86,0.00,,,0.00,0.000000,,2013-01-03 11:02:00,
2013-01-03 03:12:00,28.0,24.0,-100.00,NNW,340,3.0,6.0,86,0.00,,,0.00,0.000000,,2013-01-03 11:12:00,
2013-01-03 03:22:00,28.0,24.0,-100.00,NNW,340,3.0,6.0,86,0.00,,,0.00,0.000000,,2013-01-03 11:22:00,
2013-01-03 03:53:00,28.0,23.0,-100.00,North,353,6.0,9.0,82,0.00,,,0.00,0.000000,,2013-01-03 11:53:00,
2013-01-03 04:02:00,28.0,23.0,-100.00,North,353,6.0,9.0,82,0.00,,,0.00,0.000000,,2013-01-03 12:02:00,
2013-01-03 04:12:00,28.0,23.0,-100.00,North,353,6.0,9.0,82,0.00,,,0.00,0.000000,,2013-01-03 12:12:00,
2013-01-03 04:22:00,28.0,23.0,-100.00,North,353,6.0,9.0,82,0.00,,,0.00,0.000000,,2013-01-03 12:22:00,
2013-01-03 04:53:00,27.0,23.0,-100.00,North,351,7.0,9.0,85,0.00,,,0.00,0.000000,,2013-01-03 12:53:00,
2013-01-03 05:02:00,27.0,23.0,-100.00,North,351,7.0,9.0,85,0.00,,,0.00,0.000000,,2013-01-03 13:02:00,
2013-01-03 05:12:00,27.0,23.0,-100.00,North,351,7.0,9.0,85,0.00,,,0.00,0.000000,,2013-01-03 13:12:00,
2013-01-03 05:22:00,27.0,23.0,-100.00,North,351,7.0,9.0,85,0.00,,,0.00,0.000000,,2013-01-03 13:22:00,
2013-01-03 05:53:00,25.0,22.0,-100.00,ENE,63,5.0,8.0,88,0.00,,,0.00,0.000000,,2013-01-03 13:53:00,
2013-01-03 06:02:00,25.0,22.0,-100.00,ENE,63,5.0,8.0,88,0.00,,,0.00,0.000000,,2013-01-03 14:02:00,
2013-01-03 06:12:00,25.0,22.0,-100.00,ENE,63,5.0,8.0,88,0.00,,,0.00,0.000000,,2013-01-03 14:12:00,
2013-01-03 06:22:00,25.0,22.0,-100.00,ENE,63,5.0,8.0,88,0.00,,,0.00,0.000000,,2013-01-03 14:22:00,
2013-01-03 06:53:00,20.0,18.0,-100.00,ENE,60,5.0,8.0,90,0.00,,,0.00,0.000000,,2013-01-03 14:53:00,
2013-01-03 07:02:00,20.0,18.0,-100.00,ENE,60,5.0,8.0,90,0.00,,,0.00,0.000000,,2013-01-03 15:02:00,
2013-01-03 07:12:00,20.0,18.0,-100.00,ENE,60,5.0,8.0,90,0.00,,,0.00,0.000000,,2013-01-03 15:12:00,
2013-01-03 07:22:00,20.0,18.0,-100.00,ENE,60,5.0,8.0,90,0.00,,,0.00,0.000000,,2013-01-03 15:22:00,
2013-01-03 07:53:00,17.0,15.0,-100.00,NNE,29,4.0,8.0,91,0.00,,,0.00,0.000000,,2013-01-03 15:53:00,
2013-01-03 08:03:00,17.0,15.0,-100.00,NNE,29,4.0,8.0,91,0.00,,,0.00,0.000000,,2013-01-03 16:03:00,
2013-01-03 08:12:00,17.0,15.0,-100.00,NNE,29,4.0,8.0,91,0.00,,,0.00,0.000000,,2013-01-03 16:12:00,
2013-01-03 08:22:00,17.0,15.0,-100.00,NNE,29,4.0,8.0,91,0.00,,,0.00,0.000000,,2013-01-03 16:22:00,
2013-01-03 08:53:00,18.0,16.0,-100.00,NNE,13,8.0,9.0,90,0.00,,,0.00,23.000000,,2013-01-03 16:53:00,
2013-01-03 09:03:00,18.0,16.0,-100.00,NNE,13,8.0,9.0,90,0.00,,,0.00,23.000000,,2013-01-03 17:03:00,
2013-01-03 09:12:00,18.0,16.0,-100.00,NNE,13,8.0,9.0,90,0.00,,,0.00,23.000000,,2013-01-03 17:12:00,
2013-01-03 09:22:00,18.0,16.0,-100.00,NNE,13,8.0,9.0,90,0.00,,,0.00,23.000000,,2013-01-03 17:22:00,
2013-01-03 09:53:00,22.0,17.0,-100.00,ENE,59,6.0,11.0,81,0.00,,,-99.99,149.000000,,2013-01-03 17:53:00,
2013-01-03 10:03:00,22.0,17.0,-100.00,ENE,59,6.0,11.0,81,0.00,,,-99.99,149.000000,,2013-01-03 18:03:00,
2013-01-03 10:12:00,22.0,17.0,-100.00,ENE,59,6.0,11.0,81,0.00,,,-99.99,149.000000,,2013-01-03 18:12:00,
2013-01-03 10:22:00,22.0,17.0,-100.00,ENE,59,6.0,11.0,81,0.00,,,-99.99,149.000000,,2013-01-03 18:22:00,
2013-01-03 10:53:00,24.0,16.0,-100.00,North,11,6.0,8.0,72,0.00,,,0.00,265.000000,,2013-01-03 18:53:00,
2013-01-03 11:03:00,24.0,16.0,-100.00,North,11,6.0,8.0,72,0.00,,,0.00,265.000000,,2013-01-03 19:03:00,
2013-01-03 11:12:00,24.0,16.0,-100.00,North,11,6.0,8.0,72,0.00,,,0.00,265.000000,,2013-01-03 19:12:00,
2013-01-03 11:57:00,25.0,18.0,-100.00,North,357,6.0,9.0,73,0.00,,,0.00,332.000000,,2013-01-03 19:57:00,
2013-01-03 12:02:00,25.0,18.0,-100.00,North,357,6.0,9.0,73,0.00,,,0.00,332.000000,,2013-01-03 20:02:00,
2013-01-03 12:12:00,25.0,18.0,-100.00,North,357,6.0,9.0,73,0.00,,,0.00,332.000000,,2013-01-03 20:12:00,
2013-01-03 12:22:00,25.0,18.0,-100.00,North,357,6.0,9.0,73,0.00,,,0.00,332.000000,,2013-01-03 20:22:00,
2013-01-03 12:53:00,26.0,18.0,-100.00,NNE,17,6.0,10.0,72,0.00,,,0.00,325.000000,,2013-01-03 20:53:00,
2013-01-03 13:02:00,26.0,18.0,-100.00,NNE,17,6.0,10.0,72,0.00,,,0.00,325.000000,,2013-01-03 21:02:00,
2013-01-03 13:12:00,26.0,18.0,-100.00,NNE,17,6.0,10.0,72,0.00,,,0.00,325.000000,,2013-01-03 21:12:00,
2013-01-03 13:22:00,26.0,18.0,-100.00,NNE,17,6.0,10.0,72,0.00,,,0.00,325.000000,,2013-01-03 21:22:00,
2013-01-03 13:53:00,27.0,18.0,-100.00,WNW,296,6.0,8.0,68,0.00,,,0.00,286.000000,,2013-01-03 21:53:00,
2013-01-03 14:02:00,27.0,18.0,-100.00,WNW,296,6.0,8.0,68,0.00,,,0.00,286.000000,,2013-01-03 22:02:00,
2013-01-03 14:12:00,27.0,18.0,-100.00,WNW,296,6.0,8.0,68,0.00,,,0.00,286.000000,,2013-01-03 22:12:00,
2013-01-03 14:22:00,27.0,18.0,-100.00,WNW,296,6.0,8.0,68,0.00,,,0.00,286.000000,,2013-01-03 22:22:00,
2013-01-03 14:52:00,27.0,19.0,-100.00,North,10,6.0,9.0,70,0.00,,,0.00,263.000000,,2013-01-03 22:52:00,
2013-01-03 15:02:00,27.0,19.0,-100.00,North,10,6.0,9.0,70,0.00,,,0.00,263.000000,,2013-01-03 23:02:00,
2013-01-03 15:12:00,27.0,19.0,-100.00,North,10,6.0,9.0,70,0.00,,,0.00,263.000000,,2013-01-03 23:12:00,
2013-01-03 15:22:00,27.0,19.0,-100.00,North,10,6.0,9.0,70,0.00,,,0.00,263.000000,,2013-01-03 23:22:00,
2013-01-03 15:53:00,26.0,19.0,-100.00,NW,312,5.0,8.0,74,0.00,,,0.00,150.000000,,2013-01-03 23:53:00,
2013-01-03 16:03:00,26.0,19.0,-100.00,NW,312,5.0,8.0,74,0.00,,,0.00,150.000000,,2013-01-04 00:03:00,
2013-01-03 16:12:00,26.0,19.0,-100.00,NW,312,5.0,8.0,74,0.00,,,0.00,150.000000,,2013-01-04 00:12:00,
2013-01-03 16:22:00,26.0,19.0,-100.00,NW,312,5.0,8.0,74,0.00,,,0.00,150.000000,,2013-01-04 00:22:00,
2013-01-03 16:52:00,22.0,17.0,-100.00,NW,316,5.0,5.0,81,0.00,,,0.00,27.000000,,2013-01-04 00:52:00,
2013-01-03 17:02:00,22.0,17.0,-100.00,NW,316,5.0,5.0,81,0.00,,,0.00,27.000000,,2013-01-04 01:02:00,
2013-01-03 17:12:00,22.0,17.0,-100.00,NW,316,5.0,5.0,81,0.00,,,0.00,27.000000,,2013-01-04 01:12:00,
2013-01-03 17:22:00,22.0,17.0,-100.00,NW,316,5.0,5.0,81,0.00,,,0.00,27.000000,,2013-01-04 01:22:00,
2013-01-03 17:52:00,20.0,18.0,-100.00,WNW,300,6.0,10.0,91,0.00,,,0.00,0.000000,,2013-01-04 01:52:00,
2013-01-03 18:02:00,20.0,18.0,-100.00,WNW,300,6.0,10.0,91,0.00,,,0.00,0.000000,,2013-01-04 02:02:00,
2013-01-03 18:12:00,20.0,18.0,-100.00,WNW,300,6.0,10.0,91,0.00,,,0.00,0.000000,,2013-01-04 02:12:00,
2013-01-03 18:22:00,20.0,18.0,-100.00,WNW,300,6.0,10.0,91,0.00,,,0.00,0.000000,,2013-01-04 02:22:00,
2013-01-03 18:53:00,22.0,20.0,-100.00,WNW,297,5.0,7.0,90,0.00,,,0.00,0.000000,,2013-01-04 02:53:00,
2013-01-03 19:02:00,22.0,20.0,-100.00,WNW,297,5.0,7.0,90,0.00,,,0.00,0.000000,,2013-01-04 03:02:00,
2013-01-03 19:12:00,22.0,20.0,-100.00,WNW,297,5.0,7.0,90,0.00,,,0.00,0.000000,,2013-01-04 03:12:00,
2013-01-03 19:22:00,22.0,20.0,-100.00,WNW,297,5.0,7.0,90,0.00,,,0.00,0.000000,,2013-01-04 03:22:00,
2013-01-03 19:53:00,20.0,19.0,-100.00,NE,42,3.0,5.0,94,0.00,,,0.00,0.000000,,2013-01-04 03:53:00,
2013-01-03 20:02:00,20.0,19.0,-100.00,NE,42,3.0,5.0,94,0.00,,,0.00,0.000000,,2013-01-04 04:02:00,
2013-01-03 20:12:00,20.0,19.0,-100.00,NE,42,3.0,5.0,94,0.00,,,0.00,0.000000,,2013-01-04 04:12:00,
2013-01-03 20:22:00,20.0,19.0,-100.00,NE,42,3.0,5.0,94,0.00,,,0.00,0.000000,,2013-01-04 04:22:00,
2013-01-03 20:52:00,20.0,20.0,-100.00,NNE,27,2.0,4.0,99,0.00,,,-99.99,0.000000,,2013-01-04 04:52:00,
2013-01-03 21:03:00,20.0,20.0,-100.00,NNE,27,2.0,4.0,99,0.00,,,-99.99,0.000000,,2013-01-04 05:03:00,
2013-01-03 21:12:00,20.0,20.0,-100.00,NNE,27,2.0,4.0,99,0.00,,,-99.99,0.000000,,2013-01-04 05:12:00,
2013-01-03 21:22:00,20.0,20.0,-100.00,NNE,27,2.0,4.0,99,0.00,,,-99.99,0.000000,,2013-01-04 05:22:00,
2013-01-03 21:53:00,20.0,20.0,-100.00,ENE,66,3.0,5.0,99,0.00,,,0.00,0.000000,,2013-01-04 05:53:00,
2013-01-03 22:02:00,20.0,20.0,-100.00,ENE,66,3.0,5.0,99,0.00,,,0.00,0.000000,,2013-01-04 06:02:00,
2013-01-03 22:12:00,20.0,20.0,-100.00,ENE,66,3.0,5.0,99,0.00,,,0.00,0.000000,,2013-01-04 06:12:00,
2013-01-03 22:22:00,20.0,20.0,-100.00,ENE,66,3.0,5.0,99,0.00,,,0.00,0.000000,,2013-01-04 06:22:00,
2013-01-03 22:52:00,21.0,21.0,-100.00,ENE,77,3.0,5.0,99,0.00,,,0.00,0.000000,,2013-01-04 06:52:00,
2013-01-03 23:02:00,21.0,21.0,-100.00,ENE,77,3.0,5.0,99,0.00,,,0.00,0.000000,,2013-01-04 07:02:00,
2013-01-03 23:12:00,21.0,21.0,-100.00,ENE,77,3.0,5.0,99,0.00,,,0.00,0.000000,,2013-01-04 07:12:00,
2013-01-03 23:22:00,21.0,21.0,-100.00,ENE,77,3.0,5.0,99,0.00,,,0.00,0.000000,,2013-01-04 07:22:00,
2013-01-03 23:52:00,22.0,22.0,-100.00,NE,47,3.0,4.0,98,0.00,,,0.00,0.000000,,2013-01-04 07:52:00,